< < Back
Terminal Aerodrome Forecast


Current Version              Previous Versions:   1  2  3  4  5  6  7  8  9  

Terminal Aerodrome Forecast

709
FTUS42 KGSP 242329
TAFCLT
TAF
KCLT 242329Z 2500/2524 16007KT P6SM FEW070
     FM251000 16004KT P6SM SCT040
     FM251200 18004KT P6SM BKN035
     FM251700 16007KT P6SM BKN050=

Latest METAR

768
SAUS70 KWBC 251500 RRA
MTRCLT
METAR KCLT 251452Z 21005KT 10SM SCT036 BKN250 24/12 A3035 RMK AO2 SLP268
T02440122 58001


USA.gov is the U.S. government's official web portal to all federal, state and local government web resources and services.